createdAt,value
2017-11-18T00:00:25.434Z,988.01
2017-11-18T00:01:25.441Z,988.00
2017-11-18T00:02:26.089Z,987.96
2017-11-18T00:03:26.058Z,987.94
2017-11-18T00:04:25.410Z,987.98
2017-11-18T00:05:25.458Z,987.98
2017-11-18T00:06:25.400Z,987.90
2017-11-18T00:07:25.392Z,987.86
2017-11-18T00:08:25.383Z,987.86
2017-11-18T00:09:25.403Z,987.86
2017-11-18T00:10:25.371Z,987.79
2017-11-18T00:11:25.390Z,987.80
2017-11-18T00:12:25.669Z,987.78
2017-11-18T00:13:25.350Z,987.74
2017-11-18T00:14:25.343Z,987.65
2017-11-18T00:15:25.772Z,987.62
2017-11-18T00:16:25.326Z,987.58
2017-11-18T00:17:25.322Z,987.56
2017-11-18T00:18:25.323Z,987.55
2017-11-18T00:19:25.313Z,987.55
2017-11-18T00:20:25.302Z,987.56
2017-11-18T00:21:25.296Z,987.53
2017-11-18T00:22:25.287Z,987.54
2017-11-18T00:23:25.283Z,987.59
2017-11-18T00:24:25.286Z,987.61
2017-11-18T00:25:25.270Z,987.59
2017-11-18T00:26:25.271Z,987.56
2017-11-18T00:27:25.264Z,987.53
2017-11-18T00:28:25.261Z,987.53
2017-11-18T00:29:25.241Z,987.52
2017-11-18T00:30:25.242Z,987.53
2017-11-18T00:31:25.243Z,987.47
2017-11-18T00:32:25.242Z,987.48
2017-11-18T00:33:25.213Z,987.56
2017-11-18T00:34:25.208Z,987.55
2017-11-18T00:35:25.204Z,987.56
2017-11-18T00:36:25.202Z,987.62
2017-11-18T00:37:25.195Z,987.64
2017-11-18T00:38:25.185Z,987.62
2017-11-18T00:39:25.177Z,987.61
2017-11-18T00:40:25.170Z,987.58
2017-11-18T00:41:25.162Z,987.62
2017-11-18T00:42:25.155Z,987.60
2017-11-18T00:43:25.149Z,987.64
2017-11-18T00:44:25.143Z,987.63
2017-11-18T00:45:25.138Z,987.63
2017-11-18T00:46:25.129Z,987.70
2017-11-18T00:47:25.146Z,987.72
2017-11-18T00:48:25.115Z,987.72
2017-11-18T00:49:25.119Z,987.65
2017-11-18T00:50:25.102Z,987.67
2017-11-18T00:51:25.108Z,987.64
2017-11-18T00:52:25.091Z,987.59
2017-11-18T00:53:25.100Z,987.55
2017-11-18T00:54:25.076Z,987.54
2017-11-18T00:55:25.074Z,987.54
2017-11-18T00:56:25.064Z,987.57
2017-11-18T00:57:25.058Z,987.57
2017-11-18T00:58:25.050Z,987.54
2017-11-18T00:59:25.045Z,987.55
2017-11-18T01:00:25.042Z,987.56
2017-11-18T01:01:25.033Z,987.59
2017-11-18T01:02:25.023Z,987.56
2017-11-18T01:03:25.030Z,987.56
2017-11-18T01:04:25.012Z,987.53
2017-11-18T01:05:25.009Z,987.54
2017-11-18T01:06:24.997Z,987.52
2017-11-18T01:07:24.992Z,987.52
2017-11-18T01:08:24.987Z,987.51
2017-11-18T01:09:24.984Z,987.54
2017-11-18T01:10:24.973Z,987.53
2017-11-18T01:11:24.967Z,987.54
2017-11-18T01:12:24.958Z,987.50
2017-11-18T01:13:24.955Z,987.50
2017-11-18T01:14:24.947Z,987.51
2017-11-18T01:15:24.942Z,987.54
2017-11-18T01:16:24.935Z,987.51
2017-11-18T01:17:24.920Z,987.47
2017-11-18T01:18:24.923Z,987.46
2017-11-18T01:19:24.923Z,987.46
2017-11-18T01:20:25.179Z,987.46
2017-11-18T01:21:24.902Z,987.46
2017-11-18T01:22:24.890Z,987.43
2017-11-18T01:23:24.887Z,987.45
2017-11-18T01:24:24.880Z,987.43
2017-11-18T01:25:24.878Z,987.45
2017-11-18T01:26:24.875Z,987.42
2017-11-18T01:27:24.851Z,987.41
2017-11-18T01:28:24.871Z,987.44
2017-11-18T01:29:24.846Z,987.42
2017-11-18T01:30:24.833Z,987.48
2017-11-18T01:31:24.849Z,987.45
2017-11-18T01:32:24.861Z,987.50
2017-11-18T01:33:24.825Z,987.48
2017-11-18T01:34:24.808Z,987.57
2017-11-18T01:35:25.625Z,987.57
2017-11-18T01:36:24.797Z,987.48
2017-11-18T01:37:24.799Z,987.51
2017-11-18T01:38:24.783Z,987.43
2017-11-18T01:39:24.787Z,987.45
2017-11-18T01:40:24.782Z,987.45
2017-11-18T01:41:24.763Z,987.40
2017-11-18T01:42:24.768Z,987.44
2017-11-18T01:43:24.763Z,987.43
2017-11-18T01:44:24.756Z,987.42
2017-11-18T01:45:24.751Z,987.35
2017-11-18T01:46:24.742Z,987.39
2017-11-18T01:47:24.722Z,987.37
2017-11-18T01:48:24.757Z,987.39
2017-11-18T01:49:24.723Z,987.35
2017-11-18T01:50:24.705Z,987.33
2017-11-18T01:51:24.709Z,987.31
2017-11-18T01:52:24.704Z,987.28
2017-11-18T01:53:24.698Z,987.30
2017-11-18T01:54:24.690Z,987.23
2017-11-18T01:55:24.684Z,987.26
2017-11-18T01:56:24.676Z,987.22
2017-11-18T01:57:24.673Z,987.20
2017-11-18T01:58:24.666Z,987.21
2017-11-18T01:59:24.657Z,987.22
2017-11-18T02:00:24.648Z,987.22
2017-11-18T02:01:24.646Z,987.21
2017-11-18T02:02:24.638Z,987.18
2017-11-18T02:03:24.636Z,987.17
2017-11-18T02:04:24.625Z,987.14
2017-11-18T02:05:24.618Z,987.10
2017-11-18T02:06:24.611Z,987.09
2017-11-18T02:07:24.608Z,987.05
2017-11-18T02:08:24.600Z,987.06
2017-11-18T02:09:24.586Z,987.00
2017-11-18T02:10:24.589Z,987.02
2017-11-18T02:11:24.588Z,987.00
2017-11-18T02:12:24.577Z,986.97
2017-11-18T02:13:24.570Z,986.98
2017-11-18T02:14:24.565Z,986.97
2017-11-18T02:15:24.557Z,986.98
2017-11-18T02:16:24.551Z,987.00
2017-11-18T02:17:24.564Z,987.04
2017-11-18T02:18:24.534Z,986.98
2017-11-18T02:19:24.538Z,986.94
2017-11-18T02:20:24.525Z,986.99
2017-11-18T02:21:24.549Z,986.95
2017-11-18T02:22:24.513Z,986.97
2017-11-18T02:23:24.503Z,986.93
2017-11-18T02:24:24.498Z,986.93
2017-11-18T02:25:24.495Z,986.93
2017-11-18T02:26:24.486Z,986.96
2017-11-18T02:27:24.499Z,986.94
2017-11-18T02:28:24.487Z,986.93
2017-11-18T02:29:24.493Z,986.94
2017-11-18T02:30:24.461Z,986.92
2017-11-18T02:31:24.452Z,986.92
2017-11-18T02:32:24.447Z,986.86
2017-11-18T02:33:24.450Z,986.86
2017-11-18T02:34:24.443Z,986.85
2017-11-18T02:35:24.443Z,986.86
2017-11-18T02:36:24.432Z,986.84
2017-11-18T02:37:24.415Z,986.84
2017-11-18T02:38:24.440Z,986.77
2017-11-18T02:39:24.420Z,986.80
2017-11-18T02:40:24.414Z,986.77
2017-11-18T02:41:24.413Z,986.76
2017-11-18T02:42:24.395Z,986.66
2017-11-18T02:43:24.381Z,986.64
2017-11-18T02:44:24.373Z,986.69
2017-11-18T02:45:24.381Z,986.73
2017-11-18T02:46:24.379Z,986.66
2017-11-18T02:47:24.354Z,986.66
2017-11-18T02:48:24.358Z,986.68
2017-11-18T02:49:24.343Z,986.67
2017-11-18T02:50:24.359Z,986.65
2017-11-18T02:51:24.327Z,986.69
2017-11-18T02:52:24.326Z,986.65
2017-11-18T02:53:24.313Z,986.64
2017-11-18T02:54:24.317Z,986.63
2017-11-18T02:55:24.313Z,986.58
2017-11-18T02:56:24.298Z,986.66
2017-11-18T02:57:24.296Z,986.64
2017-11-18T02:58:24.312Z,986.60
2017-11-18T02:59:24.280Z,986.54
2017-11-18T03:00:24.268Z,986.58
2017-11-18T03:01:24.271Z,986.58
2017-11-18T03:02:24.262Z,986.56
2017-11-18T03:03:24.252Z,986.57
2017-11-18T03:04:24.258Z,986.56
2017-11-18T03:05:24.243Z,986.57
2017-11-18T03:06:24.231Z,986.58
2017-11-18T03:07:24.265Z,986.58
2017-11-18T03:08:24.252Z,986.59
2017-11-18T03:09:24.216Z,986.52
2017-11-18T03:10:24.216Z,986.57
2017-11-18T03:11:24.200Z,986.56
2017-11-18T03:12:24.203Z,986.52
2017-11-18T03:13:24.192Z,986.50
2017-11-18T03:14:24.192Z,986.47
2017-11-18T03:15:24.187Z,986.47
2017-11-18T03:16:24.169Z,986.46
2017-11-18T03:17:24.164Z,986.46
2017-11-18T03:18:24.173Z,986.47
2017-11-18T03:19:24.149Z,986.45
2017-11-18T03:20:24.145Z,986.42
2017-11-18T03:21:24.139Z,986.44
2017-11-18T03:22:24.149Z,986.45
2017-11-18T03:23:24.163Z,986.43
2017-11-18T03:24:24.194Z,986.41
2017-11-18T03:25:24.113Z,986.39
2017-11-18T03:26:24.108Z,986.35
2017-11-18T03:27:24.105Z,986.33
2017-11-18T03:28:24.111Z,986.28
2017-11-18T03:29:24.083Z,986.32
2017-11-18T03:30:24.089Z,986.24
2017-11-18T03:31:24.077Z,986.27
2017-11-18T03:32:24.077Z,986.25
2017-11-18T03:33:24.087Z,986.24
2017-11-18T03:34:24.051Z,986.25
2017-11-18T03:35:24.051Z,986.27
2017-11-18T03:36:24.055Z,986.23
2017-11-18T03:37:24.038Z,986.24
2017-11-18T03:38:24.029Z,986.23
2017-11-18T03:39:24.025Z,986.21
2017-11-18T03:40:24.040Z,986.23
2017-11-18T03:41:24.019Z,986.25
2017-11-18T03:42:24.004Z,986.25
2017-11-18T03:43:23.999Z,986.27
2017-11-18T03:44:23.993Z,986.23
2017-11-18T03:45:23.985Z,986.21
2017-11-18T03:46:24.021Z,986.22
2017-11-18T03:47:23.973Z,986.19
2017-11-18T03:48:23.972Z,986.16
2017-11-18T03:49:24.008Z,986.17
2017-11-18T03:50:23.951Z,986.13
2017-11-18T03:51:23.956Z,986.15
2017-11-18T03:52:23.953Z,986.12
2017-11-18T03:53:23.928Z,986.09
2017-11-18T03:54:23.920Z,986.09
2017-11-18T03:55:23.910Z,986.07
2017-11-18T03:56:23.914Z,986.03
2017-11-18T03:57:23.905Z,986.02
2017-11-18T03:58:23.911Z,986.02
2017-11-18T03:59:23.893Z,985.99
2017-11-18T04:00:23.881Z,985.99
2017-11-18T04:01:23.892Z,986.00
2017-11-18T04:02:23.864Z,986.01
2017-11-18T04:03:23.862Z,986.00
2017-11-18T04:04:23.861Z,985.99
2017-11-18T04:05:23.851Z,985.96
2017-11-18T04:06:23.846Z,985.94
2017-11-18T04:07:23.832Z,985.93
2017-11-18T04:08:23.830Z,985.90
2017-11-18T04:09:23.826Z,985.90
2017-11-18T04:10:23.822Z,985.89
2017-11-18T04:11:23.803Z,985.90
2017-11-18T04:12:23.815Z,985.89
2017-11-18T04:13:23.792Z,985.92
2017-11-18T04:14:23.792Z,985.87
2017-11-18T04:15:23.780Z,985.90
2017-11-18T04:16:23.779Z,985.84
2017-11-18T04:17:23.769Z,985.82
2017-11-18T04:18:23.757Z,985.81
2017-11-18T04:19:23.764Z,985.84
2017-11-18T04:20:23.750Z,985.88
2017-11-18T04:21:23.771Z,985.84
2017-11-18T04:22:23.738Z,985.81
2017-11-18T04:23:23.721Z,985.81
2017-11-18T04:24:23.725Z,985.76
2017-11-18T04:25:23.713Z,985.78
2017-11-18T04:26:23.735Z,985.74
2017-11-18T04:27:23.700Z,985.75
2017-11-18T04:28:23.694Z,985.77
2017-11-18T04:29:23.687Z,985.77
2017-11-18T04:30:23.671Z,985.75
2017-11-18T04:31:23.683Z,985.73
2017-11-18T04:32:23.670Z,985.74
2017-11-18T04:33:23.648Z,985.72
2017-11-18T04:34:23.655Z,985.67
2017-11-18T04:35:23.643Z,985.72
2017-11-18T04:36:23.630Z,985.72
2017-11-18T04:37:23.621Z,985.69
2017-11-18T04:38:23.622Z,985.71
2017-11-18T04:39:23.617Z,985.71
2017-11-18T04:40:23.601Z,985.71
2017-11-18T04:41:23.601Z,985.67
2017-11-18T04:42:23.588Z,985.67
2017-11-18T04:43:23.587Z,985.67
2017-11-18T04:44:23.576Z,985.66
2017-11-18T04:45:23.566Z,985.63
2017-11-18T04:46:23.558Z,985.65
2017-11-18T04:47:23.555Z,985.63
2017-11-18T04:48:23.583Z,985.65
2017-11-18T04:49:23.542Z,985.61
2017-11-18T04:50:23.539Z,985.61
2017-11-18T04:51:23.528Z,985.58
2017-11-18T04:52:23.520Z,985.62
2017-11-18T04:53:23.514Z,985.62
2017-11-18T04:54:23.505Z,985.62
2017-11-18T04:55:23.498Z,985.61
2017-11-18T04:56:23.498Z,985.58
2017-11-18T04:57:23.489Z,985.58
2017-11-18T04:58:23.485Z,985.59
2017-11-18T04:59:23.479Z,985.54
2017-11-18T05:00:23.457Z,985.56
2017-11-18T05:01:23.470Z,985.57
2017-11-18T05:02:23.452Z,985.52
2017-11-18T05:03:23.432Z,985.53
2017-11-18T05:04:23.447Z,985.54
2017-11-18T05:05:23.433Z,985.54
2017-11-18T05:06:23.414Z,985.53
2017-11-18T05:07:23.406Z,985.48
2017-11-18T05:08:23.404Z,985.50
2017-11-18T05:09:23.390Z,985.49
2017-11-18T05:10:23.392Z,985.47
2017-11-18T05:11:23.376Z,985.49
2017-11-18T05:12:23.376Z,985.47
2017-11-18T05:13:23.361Z,985.43
2017-11-18T05:14:23.352Z,985.51
2017-11-18T05:15:23.346Z,985.48
2017-11-18T05:16:23.340Z,985.48
2017-11-18T05:17:23.324Z,985.53
2017-11-18T05:18:23.322Z,985.52
2017-11-18T05:19:23.320Z,985.56
2017-11-18T05:20:23.310Z,985.57
2017-11-18T05:21:23.308Z,985.57
2017-11-18T05:22:23.320Z,985.52
2017-11-18T05:23:23.283Z,985.48
2017-11-18T05:24:23.284Z,985.51
2017-11-18T05:25:24.118Z,985.54
2017-11-18T05:26:23.268Z,985.55
2017-11-18T05:27:23.257Z,985.50
2017-11-18T05:28:23.254Z,985.51
2017-11-18T05:29:23.243Z,985.53
2017-11-18T05:30:23.236Z,985.51
2017-11-18T05:31:23.230Z,985.54
2017-11-18T05:32:23.228Z,985.51
2017-11-18T05:33:23.225Z,985.53
2017-11-18T05:34:23.210Z,985.54
2017-11-18T05:35:23.200Z,985.51
2017-11-18T05:36:23.202Z,985.52
2017-11-18T05:37:23.201Z,985.48
2017-11-18T05:38:23.183Z,985.49
2017-11-18T05:39:23.173Z,985.45
2017-11-18T05:40:23.165Z,985.41
2017-11-18T05:41:23.170Z,985.44
2017-11-18T05:42:23.187Z,985.44
2017-11-18T05:43:23.160Z,985.42
2017-11-18T05:44:23.137Z,985.40
2017-11-18T05:45:23.135Z,985.43
2017-11-18T05:46:23.122Z,985.41
2017-11-18T05:47:23.166Z,985.38
2017-11-18T05:48:23.110Z,985.46
2017-11-18T05:49:23.103Z,985.37
2017-11-18T05:50:23.104Z,985.41
2017-11-18T05:51:23.094Z,985.40
2017-11-18T05:52:23.096Z,985.39
2017-11-18T05:53:23.091Z,985.42
2017-11-18T05:54:23.068Z,985.40
2017-11-18T05:55:23.063Z,985.44
2017-11-18T05:56:23.066Z,985.40
2017-11-18T05:57:23.050Z,985.38
2017-11-18T05:58:23.048Z,985.40
2017-11-18T05:59:23.042Z,985.39
2017-11-18T06:00:23.029Z,985.36
2017-11-18T06:01:23.021Z,985.31
2017-11-18T06:02:23.011Z,985.37
2017-11-18T06:03:23.010Z,985.36
2017-11-18T06:04:23.002Z,985.37
2017-11-18T06:05:23.000Z,985.37
2017-11-18T06:06:22.995Z,985.37
2017-11-18T06:07:22.992Z,985.34
2017-11-18T06:08:22.989Z,985.33
2017-11-18T06:09:22.984Z,985.33
2017-11-18T06:10:22.996Z,985.32
2017-11-18T06:11:22.957Z,985.32
2017-11-18T06:12:22.953Z,985.37
2017-11-18T06:13:22.943Z,985.35
2017-11-18T06:14:22.961Z,985.33
2017-11-18T06:15:22.934Z,985.29
2017-11-18T06:16:22.925Z,985.27
2017-11-18T06:17:22.920Z,985.29
2017-11-18T06:18:22.909Z,985.31
2017-11-18T06:19:22.904Z,985.25
2017-11-18T06:20:22.912Z,985.32
2017-11-18T06:21:22.892Z,985.30
2017-11-18T06:22:22.891Z,985.29
2017-11-18T06:23:22.888Z,985.33
2017-11-18T06:24:22.876Z,985.27
2017-11-18T06:25:22.864Z,985.28
2017-11-18T06:26:22.862Z,985.28
2017-11-18T06:27:22.855Z,985.30
2017-11-18T06:28:22.843Z,985.28
2017-11-18T06:29:22.843Z,985.26
2017-11-18T06:30:22.830Z,985.25
2017-11-18T06:31:22.832Z,985.28
2017-11-18T06:32:22.821Z,985.29
2017-11-18T06:33:22.823Z,985.26
2017-11-18T06:34:22.810Z,985.26
2017-11-18T06:35:22.797Z,985.28
2017-11-18T06:36:22.799Z,985.25
2017-11-18T06:37:22.803Z,985.23
2017-11-18T06:38:22.781Z,985.24
2017-11-18T06:39:22.780Z,985.24
2017-11-18T06:40:22.792Z,985.17
2017-11-18T06:41:22.772Z,985.14
2017-11-18T06:42:22.757Z,985.11
2017-11-18T06:43:22.750Z,985.17
2017-11-18T06:44:22.747Z,985.25
2017-11-18T06:45:22.762Z,985.22
2017-11-18T06:46:22.741Z,985.23
2017-11-18T06:47:22.721Z,985.24
2017-11-18T06:48:22.725Z,985.24
2017-11-18T06:49:22.719Z,985.19
2017-11-18T06:50:22.714Z,985.21
2017-11-18T06:51:22.714Z,985.18
2017-11-18T06:52:22.710Z,985.13
2017-11-18T06:53:22.717Z,985.10
2017-11-18T06:54:22.679Z,985.03
2017-11-18T06:55:22.675Z,985.06
2017-11-18T06:56:22.674Z,985.01
2017-11-18T06:57:22.658Z,985.03
2017-11-18T06:58:22.661Z,984.97
2017-11-18T06:59:22.651Z,984.94
2017-11-18T07:00:22.658Z,984.95
2017-11-18T07:01:22.648Z,984.96
2017-11-18T07:02:22.642Z,984.95
2017-11-18T07:03:22.637Z,984.94
2017-11-18T07:04:22.628Z,984.93
2017-11-18T07:05:22.625Z,984.93
2017-11-18T07:06:22.616Z,984.91
2017-11-18T07:07:22.606Z,984.89
2017-11-18T07:08:22.608Z,984.90
2017-11-18T07:09:22.592Z,984.91
2017-11-18T07:10:22.602Z,984.89
2017-11-18T07:11:22.584Z,984.84
2017-11-18T07:12:22.575Z,984.87
2017-11-18T07:13:22.575Z,984.82
2017-11-18T07:14:22.578Z,984.82
2017-11-18T07:15:22.554Z,984.78
2017-11-18T07:16:22.551Z,984.81
2017-11-18T07:17:22.546Z,984.76
2017-11-18T07:18:22.541Z,984.78
2017-11-18T07:19:22.527Z,984.76
2017-11-18T07:20:22.525Z,984.73
2017-11-18T07:21:22.520Z,984.78
2017-11-18T07:22:22.509Z,984.78
2017-11-18T07:23:22.502Z,984.76
2017-11-18T07:24:22.496Z,984.74
2017-11-18T07:25:22.496Z,984.75
2017-11-18T07:26:22.483Z,984.68
2017-11-18T07:27:22.481Z,984.65
2017-11-18T07:28:22.524Z,984.64
2017-11-18T07:29:22.473Z,984.65
2017-11-18T07:30:22.490Z,984.65
2017-11-18T07:31:22.454Z,984.64
2017-11-18T07:32:22.462Z,984.63
2017-11-18T07:33:22.439Z,984.62
2017-11-18T07:34:22.444Z,984.65
2017-11-18T07:35:22.431Z,984.61
2017-11-18T07:36:22.449Z,984.60
2017-11-18T07:37:22.427Z,984.61
2017-11-18T07:38:22.416Z,984.64
2017-11-18T07:39:22.422Z,984.62
2017-11-18T07:40:22.409Z,984.62
2017-11-18T07:41:22.403Z,984.63
2017-11-18T07:42:22.390Z,984.66
2017-11-18T07:43:22.431Z,984.68
2017-11-18T07:44:22.385Z,984.67
2017-11-18T07:45:22.371Z,984.70
2017-11-18T07:46:22.376Z,984.75
2017-11-18T07:47:22.364Z,984.71
2017-11-18T07:48:22.356Z,984.71
2017-11-18T07:49:22.353Z,984.69
2017-11-18T07:50:22.351Z,984.72
2017-11-18T07:51:22.344Z,984.73
2017-11-18T07:52:22.348Z,984.70
2017-11-18T07:53:22.326Z,984.73
2017-11-18T07:54:22.328Z,984.69
2017-11-18T07:55:22.316Z,984.67
2017-11-18T07:56:22.318Z,984.64
2017-11-18T07:57:22.304Z,984.65
2017-11-18T07:58:22.300Z,984.63
2017-11-18T07:59:22.299Z,984.65
2017-11-18T08:00:22.302Z,984.64
2017-11-18T08:01:22.281Z,984.64
2017-11-18T08:02:22.292Z,984.64
2017-11-18T08:03:22.275Z,984.65
2017-11-18T08:04:22.269Z,984.63
2017-11-18T08:05:22.263Z,984.65
2017-11-18T08:06:22.262Z,984.69
2017-11-18T08:07:22.254Z,984.67
2017-11-18T08:08:22.246Z,984.66
2017-11-18T08:09:22.247Z,984.67
2017-11-18T08:10:22.242Z,984.65
2017-11-18T08:11:22.235Z,984.63
2017-11-18T08:12:22.222Z,984.59
2017-11-18T08:13:22.223Z,984.61
2017-11-18T08:14:22.212Z,984.58
2017-11-18T08:15:22.208Z,984.55
2017-11-18T08:16:22.205Z,984.54
2017-11-18T08:17:22.220Z,984.55
2017-11-18T08:18:22.196Z,984.52
2017-11-18T08:19:22.193Z,984.53
2017-11-18T08:20:22.213Z,984.49
2017-11-18T08:21:22.188Z,984.47
2017-11-18T08:22:22.174Z,984.47
2017-11-18T08:23:22.178Z,984.52
2017-11-18T08:24:22.164Z,984.45
2017-11-18T08:25:22.153Z,984.48
2017-11-18T08:26:22.156Z,984.48
2017-11-18T08:27:22.149Z,984.45
2017-11-18T08:28:22.143Z,984.39
2017-11-18T08:29:22.130Z,984.42
2017-11-18T08:30:22.129Z,984.42
2017-11-18T08:31:22.135Z,984.38
2017-11-18T08:32:22.120Z,984.40
2017-11-18T08:33:22.146Z,984.41
2017-11-18T08:34:22.109Z,984.43
2017-11-18T08:35:22.116Z,984.42
2017-11-18T08:36:22.100Z,984.40
2017-11-18T08:37:22.090Z,984.47
2017-11-18T08:38:22.091Z,984.40
2017-11-18T08:39:22.105Z,984.34
2017-11-18T08:40:22.135Z,984.38
2017-11-18T08:41:22.076Z,984.36
2017-11-18T08:42:22.076Z,984.42
2017-11-18T08:43:22.065Z,984.37
2017-11-18T08:44:22.064Z,984.37
2017-11-18T08:45:22.053Z,984.40
2017-11-18T08:46:22.055Z,984.34
2017-11-18T08:47:22.044Z,984.34
2017-11-18T08:48:22.036Z,984.31
2017-11-18T08:49:22.028Z,984.31
2017-11-18T08:50:22.026Z,984.30
2017-11-18T08:51:22.019Z,984.26
2017-11-18T08:52:22.024Z,984.23
2017-11-18T08:53:22.013Z,984.21
2017-11-18T08:54:22.023Z,984.18
2017-11-18T08:55:22.002Z,984.15
2017-11-18T08:56:22.004Z,984.13
2017-11-18T08:57:21.990Z,984.12
2017-11-18T08:58:22.015Z,984.12
2017-11-18T08:59:21.981Z,984.13
2017-11-18T09:00:22.011Z,984.06
2017-11-18T09:01:21.972Z,984.06
2017-11-18T09:02:21.965Z,984.02
2017-11-18T09:03:21.958Z,983.96
2017-11-18T09:04:21.954Z,983.98
2017-11-18T09:05:21.956Z,984.03
2017-11-18T09:06:21.954Z,984.06
2017-11-18T09:07:21.957Z,984.04
2017-11-18T09:08:21.982Z,984.03
2017-11-18T09:09:21.934Z,984.05
2017-11-18T09:10:21.923Z,984.01
2017-11-18T09:11:21.952Z,984.06
2017-11-18T09:12:21.914Z,984.07
2017-11-18T09:13:21.917Z,984.02
2017-11-18T09:14:21.904Z,984.11
2017-11-18T09:15:21.911Z,984.03
2017-11-18T09:16:21.903Z,984.01
2017-11-18T09:17:21.888Z,984.05
2017-11-18T09:18:21.935Z,984.01
2017-11-18T09:19:21.877Z,984.04
2017-11-18T09:20:21.881Z,984.08
2017-11-18T09:21:21.882Z,984.08
2017-11-18T09:22:21.869Z,984.10
2017-11-18T09:23:21.857Z,984.08
2017-11-18T09:24:21.856Z,984.12
2017-11-18T09:25:21.850Z,984.10
2017-11-18T09:26:21.841Z,984.06
2017-11-18T09:27:21.870Z,984.04
2017-11-18T09:28:22.066Z,984.01
2017-11-18T09:29:21.825Z,983.99
2017-11-18T09:30:22.174Z,983.99
2017-11-18T09:31:21.826Z,983.97
2017-11-18T09:32:21.819Z,983.95
2017-11-18T09:33:22.191Z,983.95
2017-11-18T09:34:21.804Z,983.90
2017-11-18T09:35:21.814Z,983.90
2017-11-18T09:36:21.798Z,983.83
2017-11-18T09:37:21.787Z,983.88
2017-11-18T09:38:21.798Z,983.86
2017-11-18T09:39:21.897Z,983.83
2017-11-18T09:40:21.956Z,983.79
2017-11-18T09:41:21.775Z,983.84
2017-11-18T09:42:21.898Z,983.80
2017-11-18T09:43:22.073Z,983.80
2017-11-18T09:44:21.893Z,983.79
2017-11-18T09:45:21.813Z,983.76
2017-11-18T09:46:21.763Z,983.79
2017-11-18T09:47:21.745Z,983.71
2017-11-18T09:48:21.737Z,983.75
2017-11-18T09:49:22.104Z,983.76
2017-11-18T09:50:21.732Z,983.74
2017-11-18T09:51:21.957Z,983.80
2017-11-18T09:52:21.727Z,983.75
2017-11-18T09:53:21.716Z,983.68
2017-11-18T09:54:21.718Z,983.70
2017-11-18T09:55:21.717Z,983.65
2017-11-18T09:56:21.710Z,983.64
2017-11-18T09:57:21.708Z,983.60
2017-11-18T09:58:21.713Z,983.60
2017-11-18T09:59:21.743Z,983.55
2017-11-18T10:00:21.733Z,983.57
2017-11-18T10:01:21.681Z,983.58
2017-11-18T10:02:21.712Z,983.53
2017-11-18T10:03:21.673Z,983.57
2017-11-18T10:04:21.668Z,983.56
2017-11-18T10:05:21.663Z,983.61
2017-11-18T10:06:21.675Z,983.62
2017-11-18T10:07:21.655Z,983.58
2017-11-18T10:08:21.662Z,983.62
2017-11-18T10:09:21.655Z,983.58
2017-11-18T10:10:21.633Z,983.56
2017-11-18T10:11:21.670Z,983.54
2017-11-18T10:12:21.674Z,983.55
2017-11-18T10:13:21.643Z,983.56
2017-11-18T10:14:21.674Z,983.48
2017-11-18T10:15:21.615Z,983.49
2017-11-18T10:16:21.609Z,983.47
2017-11-18T10:17:21.815Z,983.48
2017-11-18T10:18:21.599Z,983.45
2017-11-18T10:19:21.606Z,983.45
2017-11-18T10:20:21.603Z,983.39
2017-11-18T10:21:21.596Z,983.40
2017-11-18T10:22:21.587Z,983.37
2017-11-18T10:23:21.582Z,983.34
2017-11-18T10:24:21.594Z,983.33
2017-11-18T10:25:21.687Z,983.30
2017-11-18T10:26:21.592Z,983.34
2017-11-18T10:27:21.556Z,983.30
2017-11-18T10:28:21.600Z,983.29
2017-11-18T10:29:21.561Z,983.32
2017-11-18T10:30:21.559Z,983.40
2017-11-18T10:31:21.569Z,983.31
2017-11-18T10:32:21.539Z,983.29
2017-11-18T10:33:21.554Z,983.24
2017-11-18T10:34:21.545Z,983.23
2017-11-18T10:35:21.528Z,983.25
2017-11-18T10:36:21.757Z,983.28
2017-11-18T10:37:21.546Z,983.22
2017-11-18T10:38:21.513Z,983.18
2017-11-18T10:39:21.506Z,983.11
2017-11-18T10:40:21.586Z,983.06
2017-11-18T10:41:21.559Z,983.04
2017-11-18T10:42:21.499Z,983.10
2017-11-18T10:43:21.495Z,983.05
2017-11-18T10:44:21.487Z,983.04
2017-11-18T10:45:21.642Z,983.03
2017-11-18T10:46:21.503Z,983.09
2017-11-18T10:47:21.492Z,983.02
2017-11-18T10:48:21.475Z,982.99
2017-11-18T10:49:21.476Z,983.13
2017-11-18T10:50:21.456Z,982.91
2017-11-18T10:51:21.474Z,982.96
2017-11-18T10:52:21.472Z,983.06
2017-11-18T10:53:21.450Z,982.95
2017-11-18T10:54:21.435Z,982.97
2017-11-18T10:55:21.428Z,982.93
2017-11-18T10:56:21.428Z,982.98
2017-11-18T10:57:21.694Z,982.94
2017-11-18T10:58:21.765Z,982.91
2017-11-18T10:59:21.436Z,982.88
2017-11-18T11:00:21.406Z,982.83
2017-11-18T11:01:21.429Z,982.84
2017-11-18T11:02:21.406Z,982.81
2017-11-18T11:03:21.426Z,982.82
2017-11-18T11:04:21.721Z,982.83
2017-11-18T11:05:21.384Z,982.76
2017-11-18T11:06:21.423Z,982.73
2017-11-18T11:07:21.382Z,982.74
2017-11-18T11:08:21.371Z,982.74
2017-11-18T11:09:21.391Z,982.73
2017-11-18T11:10:21.377Z,982.71
2017-11-18T11:11:21.362Z,982.67
2017-11-18T11:12:21.350Z,982.65
2017-11-18T11:13:21.363Z,982.65
2017-11-18T11:14:21.343Z,982.64
2017-11-18T11:15:21.346Z,982.77
2017-11-18T11:16:21.343Z,982.64
2017-11-18T11:17:21.332Z,982.65
2017-11-18T11:18:42.331Z,982.63
2017-11-18T11:19:21.743Z,982.66
2017-11-18T11:20:21.315Z,982.57
2017-11-18T11:21:21.304Z,982.64
2017-11-18T11:22:21.310Z,982.53
2017-11-18T11:23:21.302Z,982.49
2017-11-18T11:24:21.574Z,982.45
2017-11-18T11:25:21.289Z,982.50
2017-11-18T11:26:21.294Z,982.47
2017-11-18T11:27:21.275Z,982.52
2017-11-18T11:28:21.299Z,982.42
2017-11-18T11:29:21.397Z,982.35
2017-11-18T11:30:21.264Z,982.40
2017-11-18T11:31:21.266Z,982.44
2017-11-18T11:32:21.253Z,982.36
2017-11-18T11:33:21.252Z,982.40
2017-11-18T11:34:21.246Z,982.36
2017-11-18T11:35:21.255Z,982.31
2017-11-18T11:36:21.233Z,982.32
2017-11-18T11:37:21.228Z,982.35
2017-11-18T11:38:21.224Z,982.26
2017-11-18T11:39:21.217Z,982.27
2017-11-18T11:40:21.214Z,982.28
2017-11-18T11:41:21.210Z,982.23
2017-11-18T11:42:21.203Z,982.15
2017-11-18T11:43:21.218Z,982.17
2017-11-18T11:44:21.222Z,982.19
2017-11-18T11:45:21.189Z,982.17
2017-11-18T11:46:21.177Z,982.19
2017-11-18T11:47:21.194Z,982.19
2017-11-18T11:48:21.170Z,982.21
2017-11-18T11:49:21.194Z,982.13
2017-11-18T11:50:21.158Z,982.18
2017-11-18T11:51:21.167Z,982.17
2017-11-18T11:52:21.156Z,982.12
2017-11-18T11:53:21.175Z,982.11
2017-11-18T11:54:21.136Z,982.09
2017-11-18T11:55:21.133Z,982.08
2017-11-18T11:56:21.135Z,982.05
2017-11-18T11:57:21.130Z,982.04
2017-11-18T11:58:21.112Z,982.01
2017-11-18T11:59:21.107Z,982.02
2017-11-18T12:00:21.105Z,981.98
2017-11-18T12:01:21.104Z,981.97
2017-11-18T12:02:21.108Z,981.99
2017-11-18T12:03:21.097Z,981.96
2017-11-18T12:04:21.092Z,981.96
2017-11-18T12:05:21.113Z,981.90
2017-11-18T12:06:21.088Z,981.87
2017-11-18T12:07:21.074Z,981.89
2017-11-18T12:08:21.100Z,981.82
2017-11-18T12:09:21.065Z,981.81
2017-11-18T12:10:21.066Z,981.80
2017-11-18T12:11:21.056Z,981.77
2017-11-18T12:12:21.056Z,981.83
2017-11-18T12:13:21.046Z,981.78
2017-11-18T12:14:21.056Z,981.80
2017-11-18T12:15:21.036Z,981.75
2017-11-18T12:16:21.029Z,981.72
2017-11-18T12:17:21.033Z,981.68
2017-11-18T12:18:21.022Z,981.69
2017-11-18T12:19:21.017Z,981.66
2017-11-18T12:20:21.062Z,981.64
2017-11-18T12:21:21.028Z,981.59
2017-11-18T12:22:21.003Z,981.58
2017-11-18T12:23:21.002Z,981.61
2017-11-18T12:24:20.997Z,981.54
2017-11-18T12:25:21.037Z,981.58
2017-11-18T12:26:20.985Z,981.57
2017-11-18T12:27:20.990Z,981.55
2017-11-18T12:28:21.000Z,981.56